sensor_id;sensor_type;location;lat;lon;timestamp;pressure;altitude;pressure_sealevel;temperature;humidity
70206;BME280;57593;55.896;37.396;2023-02-20T00:00:03;97262.28;;;-2.40;100.00
70206;BME280;57593;55.896;37.396;2023-02-20T00:00:37;97267.88;;;-2.46;100.00
70206;BME280;57593;55.896;37.396;2023-02-20T00:01:07;97268.28;;;-2.53;100.00
70206;BME280;57593;55.896;37.396;2023-02-20T00:01:38;97271.22;;;-2.46;100.00
70206;BME280;57593;55.896;37.396;2023-02-20T00:02:09;97265.75;;;-2.44;100.00
70206;BME280;57593;55.896;37.396;2023-02-20T00:02:39;97269.56;;;-2.42;100.00
70206;BME280;57593;55.896;37.396;2023-02-20T00:03:14;97275.97;;;-2.39;100.00
70206;BME280;57593;55.896;37.396;2023-02-20T00:03:45;97272.16;;;-2.42;100.00
70206;BME280;57593;55.896;37.396;2023-02-20T00:04:16;97272.03;;;-2.37;100.00
70206;BME280;57593;55.896;37.396;2023-02-20T00:04:47;97271.25;;;-2.37;100.00
70206;BME280;57593;55.896;37.396;2023-02-20T00:05:18;97270.81;;;-2.39;100.00
70206;BME280;57593;55.896;37.396;2023-02-20T00:05:49;97267.16;;;-2.61;100.00
70206;BME280;57593;55.896;37.396;2023-02-20T00:06:19;97274.94;;;-2.61;100.00
70206;BME280;57593;55.896;37.396;2023-02-20T00:06:50;97274.47;;;-2.63;100.00
70206;BME280;57593;55.896;37.396;2023-02-20T00:07:20;97266.34;;;-2.47;100.00
70206;BME280;57593;55.896;37.396;2023-02-20T00:07:51;97275.38;;;-2.59;100.00
70206;BME280;57593;55.896;37.396;2023-02-20T00:08:22;97277.88;;;-2.54;100.00
70206;BME280;57593;55.896;37.396;2023-02-20T00:08:52;97271.63;;;-2.53;100.00
70206;BME280;57593;55.896;37.396;2023-02-20T00:09:23;97262.53;;;-2.50;100.00
70206;BME280;57593;55.896;37.396;2023-02-20T00:09:54;97271.75;;;-2.58;100.00
70206;BME280;57593;55.896;37.396;2023-02-20T00:10:24;97264.00;;;-2.58;100.00
70206;BME280;57593;55.896;37.396;2023-02-20T00:10:55;97269.94;;;-2.80;100.00
70206;BME280;57593;55.896;37.396;2023-02-20T00:11:26;97273.34;;;-2.71;100.00
70206;BME280;57593;55.896;37.396;2023-02-20T00:11:56;97275.59;;;-2.55;100.00
70206;BME280;57593;55.896;37.396;2023-02-20T00:12:27;97275.16;;;-2.48;100.00
70206;BME280;57593;55.896;37.396;2023-02-20T00:12:57;97277.50;;;-2.61;100.00
70206;BME280;57593;55.896;37.396;2023-02-20T00:13:28;97266.81;;;-2.45;100.00
70206;BME280;57593;55.896;37.396;2023-02-20T00:13:59;97266.88;;;-2.37;100.00
70206;BME280;57593;55.896;37.396;2023-02-20T00:14:29;97270.66;;;-2.34;100.00
70206;BME280;57593;55.896;37.396;2023-02-20T00:15:00;97278.88;;;-2.63;100.00
70206;BME280;57593;55.896;37.396;2023-02-20T00:15:31;97284.56;;;-2.53;100.00
70206;BME280;57593;55.896;37.396;2023-02-20T00:16:01;97279.28;;;-2.47;100.00
70206;BME280;57593;55.896;37.396;2023-02-20T00:16:32;97283.78;;;-2.53;100.00
70206;BME280;57593;55.896;37.396;2023-02-20T00:17:03;97274.03;;;-2.56;100.00
70206;BME280;57593;55.896;37.396;2023-02-20T00:17:34;97271.69;;;-2.44;100.00
70206;BME280;57593;55.896;37.396;2023-02-20T00:18:04;97272.31;;;-2.69;100.00
70206;BME280;57593;55.896;37.396;2023-02-20T00:18:36;97267.16;;;-2.61;100.00
70206;BME280;57593;55.896;37.396;2023-02-20T00:19:06;97266.47;;;-2.53;100.00
70206;BME280;57593;55.896;37.396;2023-02-20T00:19:37;97275.88;;;-2.57;100.00
70206;BME280;57593;55.896;37.396;2023-02-20T00:20:08;97273.34;;;-2.71;100.00
70206;BME280;57593;55.896;37.396;2023-02-20T00:20:39;97268.72;;;-2.60;100.00
70206;BME280;57593;55.896;37.396;2023-02-20T00:21:10;97278.91;;;-2.55;100.00
70206;BME280;57593;55.896;37.396;2023-02-20T00:21:47;97270.75;;;-2.48;100.00
70206;BME280;57593;55.896;37.396;2023-02-20T00:22:21;97272.94;;;-2.64;100.00
70206;BME280;57593;55.896;37.396;2023-02-20T00:22:52;97275.22;;;-2.62;100.00
70206;BME280;57593;55.896;37.396;2023-02-20T00:23:22;97273.63;;;-2.49;100.00
70206;BME280;57593;55.896;37.396;2023-02-20T00:23:53;97282.09;;;-2.58;100.00
70206;BME280;57593;55.896;37.396;2023-02-20T00:24:24;97273.16;;;-2.51;100.00
70206;BME280;57593;55.896;37.396;2023-02-20T00:24:54;97279.50;;;-2.58;100.00
70206;BME280;57593;55.896;37.396;2023-02-20T00:25:25;97279.03;;;-2.82;100.00
70206;BME280;57593;55.896;37.396;2023-02-20T00:25:56;97279.44;;;-2.89;100.00
70206;BME280;57593;55.896;37.396;2023-02-20T00:26:26;97273.47;;;-2.76;100.00
70206;BME280;57593;55.896;37.396;2023-02-20T00:26:57;97278.94;;;-2.77;100.00
70206;BME280;57593;55.896;37.396;2023-02-20T00:27:27;97276.22;;;-2.72;100.00
70206;BME280;57593;55.896;37.396;2023-02-20T00:27:58;97279.28;;;-2.70;100.00
70206;BME280;57593;55.896;37.396;2023-02-20T00:28:29;97280.97;;;-2.65;100.00
70206;BME280;57593;55.896;37.396;2023-02-20T00:28:59;97281.56;;;-2.68;100.00
70206;BME280;57593;55.896;37.396;2023-02-20T00:29:30;97277.94;;;-2.67;100.00
70206;BME280;57593;55.896;37.396;2023-02-20T00:30:01;97275.63;;;-2.69;100.00
70206;BME280;57593;55.896;37.396;2023-02-20T00:30:31;97283.16;;;-2.81;100.00
70206;BME280;57593;55.896;37.396;2023-02-20T00:31:02;97280.28;;;-2.80;100.00
70206;BME280;57593;55.896;37.396;2023-02-20T00:31:33;97273.06;;;-3.05;100.00
70206;BME280;57593;55.896;37.396;2023-02-20T00:32:06;97274.16;;;-2.84;100.00
70206;BME280;57593;55.896;37.396;2023-02-20T00:32:37;97267.78;;;-2.86;100.00
70206;BME280;57593;55.896;37.396;2023-02-20T00:33:07;97275.81;;;-2.88;100.00
70206;BME280;57593;55.896;37.396;2023-02-20T00:33:38;97281.72;;;-2.87;100.00
70206;BME280;57593;55.896;37.396;2023-02-20T00:34:08;97279.47;;;-3.03;100.00
70206;BME280;57593;55.896;37.396;2023-02-20T00:34:40;97278.69;;;-2.90;100.00
70206;BME280;57593;55.896;37.396;2023-02-20T00:35:11;97275.94;;;-3.07;100.00
70206;BME280;57593;55.896;37.396;2023-02-20T00:35:41;97273.78;;;-3.14;100.00
70206;BME280;57593;55.896;37.396;2023-02-20T00:36:17;97281.38;;;-2.95;100.00
70206;BME280;57593;55.896;37.396;2023-02-20T00:36:48;97270.34;;;-3.23;100.00
70206;BME280;57593;55.896;37.396;2023-02-20T00:37:19;97273.19;;;-3.11;100.00
70206;BME280;57593;55.896;37.396;2023-02-20T00:37:51;97274.44;;;-3.08;100.00
70206;BME280;57593;55.896;37.396;2023-02-20T00:38:21;97276.53;;;-3.10;100.00
70206;BME280;57593;55.896;37.396;2023-02-20T00:38:52;97277.19;;;-3.55;100.00
70206;BME280;57593;55.896;37.396;2023-02-20T00:39:23;97278.78;;;-3.31;100.00
70206;BME280;57593;55.896;37.396;2023-02-20T00:39:54;97270.25;;;-3.18;100.00
70206;BME280;57593;55.896;37.396;2023-02-20T00:40:25;97274.47;;;-3.22;100.00
70206;BME280;57593;55.896;37.396;2023-02-20T00:40:55;97275.81;;;-3.25;100.00
70206;BME280;57593;55.896;37.396;2023-02-20T00:41:26;97274.28;;;-3.26;100.00
70206;BME280;57593;55.896;37.396;2023-02-20T00:41:57;97275.91;;;-3.30;100.00
70206;BME280;57593;55.896;37.396;2023-02-20T00:42:28;97272.56;;;-3.16;100.00
70206;BME280;57593;55.896;37.396;2023-02-20T00:42:59;97280.13;;;-3.34;100.00
70206;BME280;57593;55.896;37.396;2023-02-20T00:43:31;97278.47;;;-3.16;100.00
70206;BME280;57593;55.896;37.396;2023-02-20T00:44:05;97275.50;;;-3.23;100.00
70206;BME280;57593;55.896;37.396;2023-02-20T00:44:36;97275.31;;;-3.13;100.00
70206;BME280;57593;55.896;37.396;2023-02-20T00:45:08;97270.78;;;-3.07;100.00
70206;BME280;57593;55.896;37.396;2023-02-20T00:45:40;97275.28;;;-2.99;100.00
70206;BME280;57593;55.896;37.396;2023-02-20T00:46:12;97267.06;;;-3.15;100.00
70206;BME280;57593;55.896;37.396;2023-02-20T00:46:43;97273.34;;;-3.30;100.00
70206;BME280;57593;55.896;37.396;2023-02-20T00:47:16;97273.34;;;-3.30;100.00
70206;BME280;57593;55.896;37.396;2023-02-20T00:47:46;97274.25;;;-3.12;100.00
70206;BME280;57593;55.896;37.396;2023-02-20T00:48:17;97266.78;;;-3.13;100.00
70206;BME280;57593;55.896;37.396;2023-02-20T00:48:48;97270.19;;;-3.27;100.00
70206;BME280;57593;55.896;37.396;2023-02-20T00:49:38;97268.84;;;-3.24;100.00
70206;BME280;57593;55.896;37.396;2023-02-20T00:50:14;97270.06;;;-3.21;100.00
70206;BME280;57593;55.896;37.396;2023-02-20T00:50:45;97280.78;;;-3.28;100.00
70206;BME280;57593;55.896;37.396;2023-02-20T00:51:18;97273.59;;;-3.17;100.00
70206;BME280;57593;55.896;37.396;2023-02-20T00:51:49;97276.66;;;-3.15;100.00
70206;BME280;57593;55.896;37.396;2023-02-20T00:52:20;97271.78;;;-3.31;100.00
70206;BME280;57593;55.896;37.396;2023-02-20T00:52:50;97277.34;;;-3.23;100.00
70206;BME280;57593;55.896;37.396;2023-02-20T00:53:21;97276.00;;;-3.21;100.00
70206;BME280;57593;55.896;37.396;2023-02-20T00:53:52;97274.66;;;-3.18;100.00
70206;BME280;57593;55.896;37.396;2023-02-20T00:54:22;97267.84;;;-3.14;100.00
70206;BME280;57593;55.896;37.396;2023-02-20T00:54:55;97269.00;;;-3.20;100.00
70206;BME280;57593;55.896;37.396;2023-02-20T00:55:25;97260.81;;;-3.22;100.00
70206;BME280;57593;55.896;37.396;2023-02-20T00:55:56;97268.31;;;-3.12;100.00
70206;BME280;57593;55.896;37.396;2023-02-20T00:56:27;97274.59;;;-3.27;100.00
70206;BME280;57593;55.896;37.396;2023-02-20T00:57:00;97271.44;;;-3.38;100.00
70206;BME280;57593;55.896;37.396;2023-02-20T00:57:30;97263.69;;;-3.24;100.00
70206;BME280;57593;55.896;37.396;2023-02-20T00:58:01;97262.09;;;-3.11;100.00
70206;BME280;57593;55.896;37.396;2023-02-20T00:58:32;97260.00;;;-3.09;100.00
70206;BME280;57593;55.896;37.396;2023-02-20T00:59:02;97265.97;;;-3.22;100.00
70206;BME280;57593;55.896;37.396;2023-02-20T00:59:33;97270.44;;;-3.14;100.00
70206;BME280;57593;55.896;37.396;2023-02-20T01:00:05;97270.75;;;-3.30;100.00
70206;BME280;57593;55.896;37.396;2023-02-20T01:00:37;97262.03;;;-3.20;100.00
70206;BME280;57593;55.896;37.396;2023-02-20T01:01:09;97267.97;;;-3.19;100.00
70206;BME280;57593;55.896;37.396;2023-02-20T01:01:40;97263.72;;;-3.15;100.00
70206;BME280;57593;55.896;37.396;2023-02-20T01:02:11;97267.97;;;-3.19;100.00
70206;BME280;57593;55.896;37.396;2023-02-20T01:02:41;97276.03;;;-3.35;100.00
70206;BME280;57593;55.896;37.396;2023-02-20T01:03:14;97267.91;;;-3.42;100.00
70206;BME280;57593;55.896;37.396;2023-02-20T01:03:45;97266.06;;;-3.41;100.00
70206;BME280;57593;55.896;37.396;2023-02-20T01:04:15;97264.56;;;-3.42;100.00
70206;BME280;57593;55.896;37.396;2023-02-20T01:04:46;97266.56;;;-3.39;100.00
70206;BME280;57593;55.896;37.396;2023-02-20T01:05:17;97251.84;;;-3.39;100.00
70206;BME280;57593;55.896;37.396;2023-02-20T01:05:48;97256.44;;;-3.36;100.00
70206;BME280;57593;55.896;37.396;2023-02-20T01:06:19;97257.03;;;-3.53;100.00
70206;BME280;57593;55.896;37.396;2023-02-20T01:06:49;97256.72;;;-3.37;100.00
70206;BME280;57593;55.896;37.396;2023-02-20T01:07:20;97255.72;;;-3.28;100.00
70206;BME280;57593;55.896;37.396;2023-02-20T01:07:50;97259.75;;;-3.35;100.00
70206;BME280;57593;55.896;37.396;2023-02-20T01:08:21;97270.94;;;-3.40;100.00
70206;BME280;57593;55.896;37.396;2023-02-20T01:08:52;97265.22;;;-3.37;100.00
70206;BME280;57593;55.896;37.396;2023-02-20T01:09:24;97264.53;;;-3.29;100.00
70206;BME280;57593;55.896;37.396;2023-02-20T01:09:57;97265.84;;;-3.17;100.00
70206;BME280;57593;55.896;37.396;2023-02-20T01:10:28;97264.25;;;-3.27;100.00
70206;BME280;57593;55.896;37.396;2023-02-20T01:10:58;97262.97;;;-3.16;100.00
70206;BME280;57593;55.896;37.396;2023-02-20T01:11:30;97259.38;;;-3.29;100.00
70206;BME280;57593;55.896;37.396;2023-02-20T01:12:03;97256.97;;;-3.25;100.00
70206;BME280;57593;55.896;37.396;2023-02-20T01:12:33;97260.59;;;-3.26;100.00
70206;BME280;57593;55.896;37.396;2023-02-20T01:13:04;97266.53;;;-3.26;100.00
70206;BME280;57593;55.896;37.396;2023-02-20T01:13:35;97265.59;;;-3.30;100.00
70206;BME280;57593;55.896;37.396;2023-02-20T01:14:06;97270.19;;;-3.27;100.00
70206;BME280;57593;55.896;37.396;2023-02-20T01:14:37;97261.72;;;-3.55;100.00
70206;BME280;57593;55.896;37.396;2023-02-20T01:15:10;97271.06;;;-3.59;100.00
70206;BME280;57593;55.896;37.396;2023-02-20T01:15:41;97264.19;;;-3.50;100.00
70206;BME280;57593;55.896;37.396;2023-02-20T01:16:12;97271.63;;;-3.48;100.00
70206;BME280;57593;55.896;37.396;2023-02-20T01:16:47;97268.66;;;-3.41;100.00
70206;BME280;57593;55.896;37.396;2023-02-20T01:17:18;97261.00;;;-3.33;100.00
70206;BME280;57593;55.896;37.396;2023-02-20T01:17:49;97269.34;;;-3.36;100.00
70206;BME280;57593;55.896;37.396;2023-02-20T01:18:20;97268.59;;;-3.50;100.00
70206;BME280;57593;55.896;37.396;2023-02-20T01:18:51;97264.00;;;-3.53;100.00
70206;BME280;57593;55.896;37.396;2023-02-20T01:19:22;97265.63;;;-3.57;100.00
70206;BME280;57593;55.896;37.396;2023-02-20T01:19:53;97268.50;;;-3.73;100.00
70206;BME280;57593;55.896;37.396;2023-02-20T01:20:25;97270.88;;;-3.49;100.00
70206;BME280;57593;55.896;37.396;2023-02-20T01:20:58;97266.97;;;-3.60;100.00
70206;BME280;57593;55.896;37.396;2023-02-20T01:21:28;97267.53;;;-3.49;100.00
70206;BME280;57593;55.896;37.396;2023-02-20T01:21:59;97273.66;;;-3.45;100.00
70206;BME280;57593;55.896;37.396;2023-02-20T01:22:30;97271.06;;;-3.59;100.00
70206;BME280;57593;55.896;37.396;2023-02-20T01:23:01;97271.16;;;-3.50;100.00
70206;BME280;57593;55.896;37.396;2023-02-20T01:23:31;97266.66;;;-3.45;100.00
70206;BME280;57593;55.896;37.396;2023-02-20T01:24:02;97265.44;;;-3.47;100.00
70206;BME280;57593;55.896;37.396;2023-02-20T01:24:33;97264.66;;;-3.48;100.00
70206;BME280;57593;55.896;37.396;2023-02-20T01:25:04;97271.16;;;-3.36;100.00
70206;BME280;57593;55.896;37.396;2023-02-20T01:25:34;97273.81;;;-3.28;100.00
70206;BME280;57593;55.896;37.396;2023-02-20T01:26:05;97269.13;;;-3.26;100.00
70206;BME280;57593;55.896;37.396;2023-02-20T01:26:36;97266.38;;;-3.43;100.00
70206;BME280;57593;55.896;37.396;2023-02-20T01:27:08;97270.22;;;-3.54;100.00
70206;BME280;57593;55.896;37.396;2023-02-20T01:27:40;97269.81;;;-3.62;100.00
70206;BME280;57593;55.896;37.396;2023-02-20T01:28:10;97269.81;;;-3.62;100.00
70206;BME280;57593;55.896;37.396;2023-02-20T01:28:45;97267.91;;;-3.42;100.00
70206;BME280;57593;55.896;37.396;2023-02-20T01:29:17;97268.66;;;-3.55;100.00
70206;BME280;57593;55.896;37.396;2023-02-20T01:29:47;97276.75;;;-3.71;100.00
70206;BME280;57593;55.896;37.396;2023-02-20T01:30:18;97274.91;;;-3.42;100.00
70206;BME280;57593;55.896;37.396;2023-02-20T01:30:49;97271.34;;;-3.47;100.00
70206;BME280;57593;55.896;37.396;2023-02-20T01:31:19;97270.22;;;-3.54;100.00
70206;BME280;57593;55.896;37.396;2023-02-20T01:31:51;97271.53;;;-3.43;100.00
70206;BME280;57593;55.896;37.396;2023-02-20T01:32:21;97269.16;;;-3.39;100.00
70206;BME280;57593;55.896;37.396;2023-02-20T01:32:52;97273.34;;;-3.44;100.00
70206;BME280;57593;55.896;37.396;2023-02-20T01:33:23;97268.66;;;-3.55;100.00
70206;BME280;57593;55.896;37.396;2023-02-20T01:33:55;97270.09;;;-3.49;100.00
70206;BME280;57593;55.896;37.396;2023-02-20T01:34:26;97273.25;;;-3.52;100.00
70206;BME280;57593;55.896;37.396;2023-02-20T01:34:59;97270.31;;;-3.46;100.00
70206;BME280;57593;55.896;37.396;2023-02-20T01:35:29;97272.31;;;-3.56;100.00
70206;BME280;57593;55.896;37.396;2023-02-20T01:36:01;97276.50;;;-3.47;100.00
70206;BME280;57593;55.896;37.396;2023-02-20T01:36:32;97274.50;;;-3.50;100.00
70206;BME280;57593;55.896;37.396;2023-02-20T01:37:03;97280.47;;;-3.77;100.00
70206;BME280;57593;55.896;37.396;2023-02-20T01:37:34;97279.84;;;-3.46;100.00
70206;BME280;57593;55.896;37.396;2023-02-20T01:38:05;97269.16;;;-3.53;100.00
70206;BME280;57593;55.896;37.396;2023-02-20T01:38:36;97273.16;;;-3.33;100.00
70206;BME280;57593;55.896;37.396;2023-02-20T01:39:09;97281.84;;;-3.43;100.00
70206;BME280;57593;55.896;37.396;2023-02-20T01:39:39;97287.00;;;-3.43;100.00
70206;BME280;57593;55.896;37.396;2023-02-20T01:40:22;97280.97;;;-3.38;100.00
70206;BME280;57593;55.896;37.396;2023-02-20T01:40:52;97281.19;;;-3.35;100.00
70206;BME280;57593;55.896;37.396;2023-02-20T01:41:23;97278.97;;;-3.28;100.00
70206;BME280;57593;55.896;37.396;2023-02-20T01:41:59;97284.72;;;-3.31;100.00
70206;BME280;57593;55.896;37.396;2023-02-20T01:42:31;97276.13;;;-3.40;100.00
70206;BME280;57593;55.896;37.396;2023-02-20T01:43:03;97284.06;;;-3.36;100.00
70206;BME280;57593;55.896;37.396;2023-02-20T01:43:34;97279.66;;;-3.36;100.00
70206;BME280;57593;55.896;37.396;2023-02-20T01:44:04;97285.59;;;-3.49;100.00
70206;BME280;57593;55.896;37.396;2023-02-20T01:44:36;97288.28;;;-3.54;100.00
70206;BME280;57593;55.896;37.396;2023-02-20T01:45:53;97281.19;;;-3.35;100.00
70206;BME280;57593;55.896;37.396;2023-02-20T01:46:59;97279.97;;;-3.15;100.00
70206;BME280;57593;55.896;37.396;2023-02-20T01:47:30;97282.63;;;-3.29;100.00
70206;BME280;57593;55.896;37.396;2023-02-20T01:48:02;97279.66;;;-3.50;100.00
70206;BME280;57593;55.896;37.396;2023-02-20T01:48:33;97282.53;;;-3.37;100.00
70206;BME280;57593;55.896;37.396;2023-02-20T01:49:06;97277.06;;;-3.22;100.00
70206;BME280;57593;55.896;37.396;2023-02-20T01:49:53;97275.34;;;-3.27;100.00
70206;BME280;57593;55.896;37.396;2023-02-20T01:50:31;97289.22;;;-3.36;100.00
70206;BME280;57593;55.896;37.396;2023-02-20T01:51:03;97286.72;;;-3.28;100.00
70206;BME280;57593;55.896;37.396;2023-02-20T01:51:37;97281.19;;;-3.35;100.00
70206;BME280;57593;55.896;37.396;2023-02-20T01:52:28;97274.81;;;-3.15;100.00
70206;BME280;57593;55.896;37.396;2023-02-20T01:53:05;97284.91;;;-3.27;100.00
70206;BME280;57593;55.896;37.396;2023-02-20T01:53:38;97284.22;;;-3.19;100.00
70206;BME280;57593;55.896;37.396;2023-02-20T01:54:13;97285.97;;;-3.42;100.00
70206;BME280;57593;55.896;37.396;2023-02-20T01:54:53;97287.66;;;-3.23;100.00
70206;BME280;57593;55.896;37.396;2023-02-20T01:56:10;97287.50;;;-3.41;100.00
70206;BME280;57593;55.896;37.396;2023-02-20T01:56:42;97286.50;;;-3.17;100.00
70206;BME280;57593;55.896;37.396;2023-02-20T01:57:19;97286.22;;;-3.16;100.00
70206;BME280;57593;55.896;37.396;2023-02-20T01:58:00;97286.69;;;-3.14;100.00
70206;BME280;57593;55.896;37.396;2023-02-20T01:58:46;97290.16;;;-3.32;100.00
70206;BME280;57593;55.896;37.396;2023-02-20T01:59:20;97290.09;;;-3.41;100.00
70206;BME280;57593;55.896;37.396;2023-02-20T01:59:54;97291.22;;;-3.33;100.00
70206;BME280;57593;55.896;37.396;2023-02-20T02:00:26;97291.41;;;-3.30;100.00
70206;BME280;57593;55.896;37.396;2023-02-20T02:01:00;97287.88;;;-3.34;100.00
70206;BME280;57593;55.896;37.396;2023-02-20T02:01:32;97293.72;;;-3.42;100.00
70206;BME280;57593;55.896;37.396;2023-02-20T02:02:04;97286.66;;;-3.36;100.00
70206;BME280;57593;55.896;37.396;2023-02-20T02:02:40;97285.19;;;-3.29;100.00
70206;BME280;57593;55.896;37.396;2023-02-20T02:03:14;97288.41;;;-3.23;100.00
70206;BME280;57593;55.896;37.396;2023-02-20T02:03:48;97285.34;;;-3.11;100.00
70206;BME280;57593;55.896;37.396;2023-02-20T02:04:23;97286.72;;;-3.28;100.00
70206;BME280;57593;55.896;37.396;2023-02-20T02:04:54;97285.38;;;-3.25;100.00
70206;BME280;57593;55.896;37.396;2023-02-20T02:05:28;97285.78;;;-3.46;100.00
70206;BME280;57593;55.896;37.396;2023-02-20T02:06:05;97294.66;;;-3.24;100.00
70206;BME280;57593;55.896;37.396;2023-02-20T02:06:40;97298.16;;;-3.20;100.00
70206;BME280;57593;55.896;37.396;2023-02-20T02:07:11;97286.09;;;-3.11;100.00
70206;BME280;57593;55.896;37.396;2023-02-20T02:07:42;97290.50;;;-3.11;100.00
70206;BME280;57593;55.896;37.396;2023-02-20T02:08:15;97282.97;;;-3.21;100.00
70206;BME280;57593;55.896;37.396;2023-02-20T02:08:48;97286.69;;;-3.14;100.00
70206;BME280;57593;55.896;37.396;2023-02-20T02:09:25;97295.28;;;-3.18;100.00
70206;BME280;57593;55.896;37.396;2023-02-20T02:10:01;97289.81;;;-3.03;100.00
70206;BME280;57593;55.896;37.396;2023-02-20T02:10:42;97290.50;;;-3.11;100.00
70206;BME280;57593;55.896;37.396;2023-02-20T02:11:19;97287.22;;;-3.03;100.00
70206;BME280;57593;55.896;37.396;2023-02-20T02:11:52;97290.28;;;-3.01;100.00
70206;BME280;57593;55.896;37.396;2023-02-20T02:12:23;97293.53;;;-2.95;100.00
70206;BME280;57593;55.896;37.396;2023-02-20T02:12:54;97291.53;;;-2.98;100.00
70206;BME280;57593;55.896;37.396;2023-02-20T02:13:25;97287.44;;;-3.13;100.00
70206;BME280;57593;55.896;37.396;2023-02-20T02:13:58;97288.41;;;-3.09;100.00
70206;BME280;57593;55.896;37.396;2023-02-20T02:14:29;97291.56;;;-3.12;100.00
70206;BME280;57593;55.896;37.396;2023-02-20T02:14:59;97297.09;;;-3.05;100.00
70206;BME280;57593;55.896;37.396;2023-02-20T02:15:30;97292.13;;;-3.15;100.00
70206;BME280;57593;55.896;37.396;2023-02-20T02:16:23;97290.97;;;-3.09;100.00
70206;BME280;57593;55.896;37.396;2023-02-20T02:18:12;97289.72;;;-3.12;100.00
70206;BME280;57593;55.896;37.396;2023-02-20T02:18:51;97293.16;;;-3.02;100.00
70206;BME280;57593;55.896;37.396;2023-02-20T02:19:38;97296.25;;;-3.14;100.00
70206;BME280;57593;55.896;37.396;2023-02-20T02:20:24;97296.59;;;-3.07;100.00
70206;BME280;57593;55.896;37.396;2023-02-20T02:23:04;97288.91;;;-3.21;100.00
70206;BME280;57593;55.896;37.396;2023-02-20T02:24:59;97289.66;;;-3.20;100.00
70206;BME280;57593;55.896;37.396;2023-02-20T02:32:00;97287.97;;;-3.25;100.00
70206;BME280;57593;55.896;37.396;2023-02-20T02:40:00;97293.66;;;-3.78;100.00
70206;BME280;57593;55.896;37.396;2023-02-20T02:41:59;97303.06;;;-3.60;100.00
70206;BME280;57593;55.896;37.396;2023-02-20T02:43:31;97299.34;;;-4.09;100.00
70206;BME280;57593;55.896;37.396;2023-02-20T02:45:02;97300.31;;;-4.38;100.00
70206;BME280;57593;55.896;37.396;2023-02-20T02:46:29;97303.06;;;-4.02;100.00
70206;BME280;57593;55.896;37.396;2023-02-20T02:47:29;97303.00;;;-3.83;100.00
70206;BME280;57593;55.896;37.396;2023-02-20T02:48:10;97303.56;;;-3.72;100.00
70206;BME280;57593;55.896;37.396;2023-02-20T02:48:48;97301.34;;;-3.65;100.00
70206;BME280;57593;55.896;37.396;2023-02-20T02:50:17;97302.91;;;-3.77;100.00
70206;BME280;57593;55.896;37.396;2023-02-20T02:50:55;97308.03;;;-3.91;100.00
70206;BME280;57593;55.896;37.396;2023-02-20T02:51:31;97309.09;;;-3.65;100.00
70206;BME280;57593;55.896;37.396;2023-02-20T02:52:05;97305.28;;;-3.67;100.00
70206;BME280;57593;55.896;37.396;2023-02-20T02:52:39;97299.47;;;-3.59;100.00
70206;BME280;57593;55.896;37.396;2023-02-20T02:53:18;97301.00;;;-3.58;100.00
70206;BME280;57593;55.896;37.396;2023-02-20T02:54:11;97298.22;;;-3.62;100.00
70206;BME280;57593;55.896;37.396;2023-02-20T02:54:42;97302.63;;;-3.62;100.00
70206;BME280;57593;55.896;37.396;2023-02-20T02:55:50;97301.47;;;-3.84;100.00
70206;BME280;57593;55.896;37.396;2023-02-20T02:56:21;97299.16;;;-3.71;100.00
70206;BME280;57593;55.896;37.396;2023-02-20T02:56:53;97296.78;;;-3.54;100.00
70206;BME280;57593;55.896;37.396;2023-02-20T02:57:43;97300.88;;;-3.39;100.00
70206;BME280;57593;55.896;37.396;2023-02-20T02:58:13;97297.63;;;-3.31;100.00
70206;BME280;57593;55.896;37.396;2023-02-20T02:58:44;97295.44;;;-3.37;100.00
70206;BME280;57593;55.896;37.396;2023-02-20T02:59:30;97303.28;;;-3.29;100.00
70206;BME280;57593;55.896;37.396;2023-02-20T03:00:09;97314.06;;;-3.40;100.00
70206;BME280;57593;55.896;37.396;2023-02-20T03:00:42;97303.75;;;-3.40;100.00
70206;BME280;57593;55.896;37.396;2023-02-20T03:01:16;97305.19;;;-3.34;100.00
70206;BME280;57593;55.896;37.396;2023-02-20T03:01:59;97314.47;;;-3.47;100.00
70206;BME280;57593;55.896;37.396;2023-02-20T03:02:38;97315.13;;;-3.55;100.00
70206;BME280;57593;55.896;37.396;2023-02-20T03:03:51;97308.91;;;-3.54;100.00
70206;BME280;57593;55.896;37.396;2023-02-20T03:04:24;97306.44;;;-3.46;100.00
70206;BME280;57593;55.896;37.396;2023-02-20T03:05:00;97311.69;;;-3.51;100.00
70206;BME280;57593;55.896;37.396;2023-02-20T03:06:00;97305.47;;;-3.36;100.00
70206;BME280;57593;55.896;37.396;2023-02-20T03:06:33;97302.31;;;-3.33;100.00
70206;BME280;57593;55.896;37.396;2023-02-20T03:07:10;97310.63;;;-3.22;100.00
70206;BME280;57593;55.896;37.396;2023-02-20T03:07:44;97313.22;;;-3.50;100.00
70206;BME280;57593;55.896;37.396;2023-02-20T03:08:40;97311.78;;;-3.42;100.00
70206;BME280;57593;55.896;37.396;2023-02-20T03:09:17;97325.72;;;-3.43;100.00
70206;BME280;57593;55.896;37.396;2023-02-20T03:09:54;97319.63;;;-3.47;100.00
70206;BME280;57593;55.896;37.396;2023-02-20T03:10:27;97318.94;;;-3.39;100.00
70206;BME280;57593;55.896;37.396;2023-02-20T03:11:22;97314.47;;;-3.47;100.00
70206;BME280;57593;55.896;37.396;2023-02-20T03:11:55;97322.97;;;-3.47;100.00
70206;BME280;57593;55.896;37.396;2023-02-20T03:12:31;97319.50;;;-3.28;100.00
70206;BME280;57593;55.896;37.396;2023-02-20T03:13:04;97315.97;;;-3.32;100.00
70206;BME280;57593;55.896;37.396;2023-02-20T03:13:39;97317.41;;;-3.26;100.00
70206;BME280;57593;55.896;37.396;2023-02-20T03:15:33;97321.72;;;-3.49;100.00
70206;BME280;57593;55.896;37.396;2023-02-20T03:16:07;97314.25;;;-3.65;100.00
70206;BME280;57593;55.896;37.396;2023-02-20T03:17:42;97322.69;;;-3.59;100.00
70206;BME280;57593;55.896;37.396;2023-02-20T03:17:51;97321.13;;;-3.60;100.00
70206;BME280;57593;55.896;37.396;2023-02-20T03:18:34;97323.94;;;-3.56;100.00
70206;BME280;57593;55.896;37.396;2023-02-20T03:19:11;97323.16;;;-3.57;100.00
70206;BME280;57593;55.896;37.396;2023-02-20T03:19:46;97321.34;;;-3.56;100.00